Time;durP1;ratioP1;P1;durP2;ratioP2;P2;SDS_P1;SDS_P2;PMS_P1;PMS_P2;Temp;Humidity;BMP_temperature;BMP_pressure;BME280_temperature;BME280_humidity;BME280_pressure;Samples;Min_cycle;Max_cycle;Signal;HPM_P1;HPM_P2
2023/04/03 00:01:00;;;;;;;4.30;2.30;;;3.40;99.90;;;;;;5044159;28;20717;-78
2023/04/03 00:03:27;;;;;;;3.97;2.20;;;3.40;99.90;;;;;;5040721;28;20253;-78
2023/04/03 00:05:54;;;;;;;5.43;2.47;;;3.50;99.90;;;;;;5033556;28;20207;-80
2023/04/03 00:08:21;;;;;;;4.27;2.50;;;3.40;99.90;;;;;;5042502;28;20228;-77
2023/04/03 00:10:49;;;;;;;2.67;2.30;;;3.40;99.90;;;;;;5043375;28;20330;-78
2023/04/03 00:13:16;;;;;;;5.70;2.40;;;3.40;99.90;;;;;;5041595;28;20210;-78
2023/04/03 00:15:43;;;;;;;7.43;2.80;;;3.40;99.90;;;;;;5044288;28;20287;-78
2023/04/03 00:18:10;;;;;;;3.07;2.23;;;3.30;99.90;;;;;;5042400;28;20289;-77
2023/04/03 00:20:37;;;;;;;5.07;2.70;;;3.30;99.90;;;;;;5031975;28;20609;-77
2023/04/03 00:23:05;;;;;;;4.07;2.67;;;3.30;99.90;;;;;;5036822;28;20205;-77
2023/04/03 00:25:32;;;;;;;3.37;2.30;;;3.30;99.90;;;;;;5042364;28;20203;-78
2023/04/03 00:27:59;;;;;;;4.37;2.30;;;3.30;99.90;;;;;;5043476;28;20570;-80
2023/04/03 00:30:26;;;;;;;5.83;2.97;;;4.00;99.90;;;;;;5043763;28;20284;-78
2023/04/03 00:32:53;;;;;;;3.33;2.30;;;3.20;99.90;;;;;;5040065;28;20739;-79
2023/04/03 00:35:21;;;;;;;5.47;2.50;;;3.20;99.90;;;;;;5042047;28;20361;-78
2023/04/03 00:37:48;;;;;;;2.70;2.07;;;2.80;99.90;;;;;;5042793;28;20211;-78
2023/04/03 00:40:16;;;;;;;5.57;2.50;;;3.20;99.90;;;;;;5041396;28;20243;-79
2023/04/03 00:42:44;;;;;;;4.77;2.40;;;2.20;99.90;;;;;;5041336;28;20208;-77
2023/04/03 00:45:11;;;;;;;4.77;2.60;;;3.10;99.90;;;;;;5041612;28;20214;-78
2023/04/03 00:47:40;;;;;;;4.80;2.33;;;2.80;99.90;;;;;;5044063;28;20603;-78
2023/04/03 00:50:08;;;;;;;3.23;2.63;;;3.10;99.90;;;;;;5039932;28;20211;-77
2023/04/03 00:52:35;;;;;;;3.97;2.50;;;3.10;99.90;;;;;;5038429;28;20216;-78
2023/04/03 00:55:05;;;;;;;4.57;2.80;;;3.10;99.90;;;;;;5041957;28;20215;-77
2023/04/03 00:57:33;;;;;;;5.30;2.53;;;3.10;99.90;;;;;;5044016;28;20195;-77
2023/04/03 01:00:05;;;;;;;4.30;2.60;;;3.00;99.90;;;;;;5044912;28;20223;-77
2023/04/03 01:02:32;;;;;;;3.47;2.47;;;3.00;99.90;;;;;;5042544;28;20222;-78
2023/04/03 01:04:59;;;;;;;3.07;2.80;;;2.90;99.90;;;;;;5045394;28;20199;-78
2023/04/03 01:07:30;;;;;;;5.60;2.60;;;2.80;99.90;;;;;;5042984;28;20273;-78
2023/04/03 01:10:00;;;;;;;4.70;2.60;;;3.70;99.90;;;;;;5042015;28;20260;-77
2023/04/03 01:12:30;;;;;;;4.53;2.43;;;2.90;99.90;;;;;;5031029;28;20244;-77
2023/04/03 01:15:00;;;;;;;6.57;4.33;;;2.90;99.90;;;;;;5040928;28;20223;-78
2023/04/03 01:17:39;;;;;;;3.93;2.70;;;2.90;99.90;;;;;;5044810;28;20849;-78
2023/04/03 01:20:28;;;;;;;5.87;2.77;;;2.90;99.90;;;;;;5041572;28;20699;-77
2023/04/03 01:23:03;;;;;;;3.27;2.50;;;2.80;99.90;;;;;;5039255;28;20567;-78
2023/04/03 01:25:30;;;;;;;6.03;2.83;;;2.80;99.90;;;;;;5041152;28;20211;-77
2023/04/03 01:27:57;;;;;;;5.07;2.70;;;2.80;99.90;;;;;;5042005;28;20237;-77
2023/04/03 01:30:30;;;;;;;4.60;2.77;;;2.70;99.90;;;;;;5042337;28;20324;-77
2023/04/03 01:32:57;;;;;;;7.30;2.90;;;3.50;99.90;;;;;;5038771;28;20270;-78
2023/04/03 01:35:24;;;;;;;4.70;2.60;;;2.70;99.90;;;;;;5042575;28;20203;-78
2023/04/03 01:37:54;;;;;;;6.83;2.63;;;2.80;99.90;;;;;;5042642;28;20636;-78
2023/04/03 01:40:21;;;;;;;4.30;3.20;;;2.70;99.90;;;;;;5041604;28;20213;-78
2023/04/03 01:42:47;;;;;;;4.67;2.90;;;2.80;99.90;;;;;;5029935;28;20294;-78
2023/04/03 01:45:14;;;;;;;4.90;2.80;;;2.60;99.90;;;;;;5040750;28;20230;-78
2023/04/03 01:47:41;;;;;;;5.87;2.83;;;2.60;99.90;;;;;;5044569;28;20634;-78
2023/04/03 01:50:09;;;;;;;4.27;3.87;;;2.60;99.90;;;;;;5037553;28;20275;-78
2023/04/03 01:52:35;;;;;;;4.20;2.90;;;2.50;99.90;;;;;;5040653;28;20313;-77
2023/04/03 01:55:02;;;;;;;5.37;2.80;;;2.50;99.90;;;;;;5039990;28;20626;-78
2023/04/03 01:57:29;;;;;;;6.43;3.23;;;2.50;99.90;;;;;;5044407;28;20684;-78
2023/04/03 01:59:56;;;;;;;6.27;3.97;;;2.50;99.90;;;;;;5038316;28;20675;-77
2023/04/03 02:02:25;;;;;;;3.87;2.93;;;2.50;99.90;;;;;;5037849;28;20675;-78
2023/04/03 02:04:52;;;;;;;3.83;3.03;;;2.50;99.90;;;;;;5041421;28;20204;-76
2023/04/03 02:07:19;;;;;;;4.00;2.93;;;2.40;99.90;;;;;;5044989;28;20215;-77
2023/04/03 02:09:46;;;;;;;7.43;3.33;;;2.40;99.90;;;;;;5020412;28;20210;-77
2023/04/03 02:12:13;;;;;;;5.23;3.40;;;2.40;99.90;;;;;;5040884;28;20245;-78
2023/04/03 02:14:40;;;;;;;4.80;3.13;;;2.40;99.90;;;;;;5042508;28;20538;-78
2023/04/03 02:17:08;;;;;;;4.23;2.80;;;2.40;99.90;;;;;;5039151;28;20590;-77
2023/04/03 02:19:35;;;;;;;6.83;3.10;;;2.20;99.90;;;;;;5044720;28;20210;-78
2023/04/03 02:22:03;;;;;;;8.10;3.40;;;2.40;99.90;;;;;;5041351;28;20249;-78
2023/04/03 02:24:31;;;;;;;8.10;3.37;;;2.40;99.90;;;;;;5042550;28;20629;-78
2023/04/03 02:26:58;;;;;;;6.33;3.53;;;2.30;99.90;;;;;;5039935;28;20198;-78
2023/04/03 02:29:24;;;;;;;5.70;3.20;;;2.30;99.90;;;;;;5041386;28;20266;-77
2023/04/03 02:31:51;;;;;;;5.40;3.20;;;2.30;99.90;;;;;;5042056;28;20673;-77
2023/04/03 02:34:18;;;;;;;6.40;3.40;;;2.30;99.90;;;;;;5042750;28;20638;-78
2023/04/03 02:36:45;;;;;;;5.80;3.53;;;1.80;99.90;;;;;;5042438;28;20707;-78
2023/04/03 02:39:12;;;;;;;6.50;3.97;;;1.60;99.90;;;;;;5045754;28;20275;-78
2023/04/03 02:41:42;;;;;;;5.50;3.10;;;2.50;99.90;;;;;;5041498;28;20202;-78
2023/04/03 02:44:10;;;;;;;6.57;3.27;;;2.40;99.90;;;;;;5042959;28;20741;-77
2023/04/03 02:46:37;;;;;;;12.63;4.10;;;2.50;99.90;;;;;;5048859;28;20288;-79
2023/04/03 02:49:04;;;;;;;8.30;3.70;;;1.90;99.90;;;;;;5044137;28;20665;-78
2023/04/03 02:51:31;;;;;;;5.33;3.40;;;2.10;99.90;;;;;;5028531;28;20197;-77
2023/04/03 02:53:58;;;;;;;4.87;3.57;;;2.60;99.90;;;;;;5042916;28;20284;-77
2023/04/03 02:56:26;;;;;;;7.57;3.63;;;2.10;99.90;;;;;;5043177;28;20202;-79
2023/04/03 02:58:53;;;;;;;4.97;3.50;;;2.80;99.90;;;;;;5044813;28;20253;-77
2023/04/03 03:01:20;;;;;;;6.97;3.50;;;3.10;99.90;;;;;;5043551;28;20216;-77
2023/04/03 03:03:47;;;;;;;8.73;4.40;;;2.10;99.90;;;;;;5041039;28;20244;-79
2023/04/03 03:06:16;;;;;;;5.53;3.90;;;3.10;99.90;;;;;;5049108;28;20756;-78
2023/04/03 03:08:43;;;;;;;8.97;3.60;;;2.00;99.90;;;;;;5048237;28;20261;-78
2023/04/03 03:11:11;;;;;;;9.53;4.03;;;1.70;99.90;;;;;;5030444;28;20252;-76
2023/04/03 03:13:38;;;;;;;5.40;3.43;;;1.90;99.90;;;;;;5047534;28;20288;-80
2023/04/03 03:16:05;;;;;;;7.77;3.90;;;1.90;99.90;;;;;;5041738;28;20563;-79
2023/04/03 03:18:33;;;;;;;7.93;3.40;;;;;;;;;;5045592;28;20348;-79
2023/04/03 03:21:02;;;;;;;6.83;4.03;;;1.90;99.90;;;;;;5028023;28;20291;-77
2023/04/03 03:23:31;;;;;;;5.17;3.40;;;1.80;99.90;;;;;;5022540;28;20232;-78
2023/04/03 03:26:05;;;;;;;6.43;3.47;;;1.80;99.90;;;;;;5043734;28;20208;-78
2023/04/03 03:28:32;;;;;;;4.33;3.77;;;1.70;99.90;;;;;;5042801;28;20244;-78
2023/04/03 03:31:00;;;;;;;5.83;3.93;;;1.70;99.90;;;;;;5035581;28;20301;-77
2023/04/03 03:33:27;;;;;;;7.23;4.13;;;1.70;99.90;;;;;;5040634;28;20230;-79
2023/04/03 03:35:55;;;;;;;8.93;3.80;;;1.70;99.90;;;;;;5045392;28;20297;-78
2023/04/03 03:38:22;;;;;;;6.80;4.10;;;1.60;99.90;;;;;;5043511;28;20198;-77
2023/04/03 03:40:50;;;;;;;6.67;3.97;;;1.60;99.90;;;;;;5041326;28;20216;-78
2023/04/03 03:43:18;;;;;;;9.27;4.30;;;1.60;99.90;;;;;;5032517;28;20200;-77
2023/04/03 03:45:49;;;;;;;10.90;4.23;;;1.60;99.90;;;;;;5045722;28;20327;-79
2023/04/03 03:48:16;;;;;;;7.93;3.97;;;1.60;99.90;;;;;;5046713;28;20258;-77
2023/04/03 03:50:42;;;;;;;10.10;4.30;;;1.50;99.90;;;;;;5044504;28;20324;-76
2023/04/03 03:53:09;;;;;;;9.20;4.70;;;1.50;99.90;;;;;;5032561;28;20659;-78
2023/04/03 03:55:36;;;;;;;8.73;4.10;;;1.50;99.90;;;;;;5041152;28;20242;-78
2023/04/03 03:58:03;;;;;;;6.10;3.93;;;1.50;99.90;;;;;;5043421;28;20249;-77
2023/04/03 04:00:30;;;;;;;8.40;4.50;;;1.40;99.90;;;;;;5040364;28;20221;-79
2023/04/03 04:02:57;;;;;;;8.87;4.53;;;1.40;99.90;;;;;;5043347;28;20256;-78
2023/04/03 04:05:25;;;;;;;11.27;5.17;;;1.40;99.90;;;;;;5031471;28;20198;-77
2023/04/03 04:07:51;;;;;;;6.23;4.43;;;1.40;99.90;;;;;;5043363;28;20199;-79
2023/04/03 04:10:18;;;;;;;9.83;3.97;;;1.30;99.90;;;;;;5042588;28;20213;-79
2023/04/03 04:12:45;;;;;;;7.70;4.63;;;1.30;99.90;;;;;;5043289;28;20271;-78
2023/04/03 04:15:12;;;;;;;6.27;4.17;;;1.30;99.90;;;;;;5043152;28;20214;-78
2023/04/03 04:17:39;;;;;;;7.77;4.87;;;1.30;99.90;;;;;;5041172;28;20312;-77
2023/04/03 04:20:06;;;;;;;7.67;4.23;;;1.20;99.90;;;;;;5041463;28;20202;-78
2023/04/03 04:22:33;;;;;;;11.03;5.17;;;1.10;99.90;;;;;;5041416;28;20310;-79
2023/04/03 04:24:59;;;;;;;7.40;4.90;;;1.10;99.90;;;;;;5024503;28;20276;-78
2023/04/03 04:27:26;;;;;;;10.13;5.17;;;1.00;99.90;;;;;;5041123;28;20753;-79
2023/04/03 04:29:53;;;;;;;6.30;4.07;;;1.00;99.90;;;;;;5043438;28;20221;-78
2023/04/03 04:32:20;;;;;;;10.93;4.50;;;1.00;99.90;;;;;;5038992;28;20764;-78
2023/04/03 04:34:47;;;;;;;8.77;4.23;;;1.00;99.90;;;;;;5042087;28;20271;-79
2023/04/03 04:37:13;;;;;;;7.50;4.43;;;0.90;99.90;;;;;;5041714;28;20844;-79
2023/04/03 04:39:40;;;;;;;9.63;4.70;;;0.90;99.90;;;;;;5040331;28;20249;-79
2023/04/03 04:42:12;;;;;;;8.57;5.47;;;0.90;99.90;;;;;;5042103;28;20264;-78
2023/04/03 04:44:42;;;;;;;6.63;4.93;;;0.90;99.90;;;;;;5023067;28;20220;-77
2023/04/03 04:47:09;;;;;;;15.27;5.53;;;0.80;99.90;;;;;;5044359;28;20253;-80
2023/04/03 04:49:35;;;;;;;12.30;5.47;;;0.80;99.90;;;;;;5033097;28;20236;-78
2023/04/03 04:52:02;;;;;;;8.33;5.43;;;0.80;99.90;;;;;;5034180;28;20741;-78
2023/04/03 04:54:29;;;;;;;8.83;5.20;;;0.80;99.90;;;;;;5044001;28;20236;-77
2023/04/03 04:56:56;;;;;;;11.17;5.70;;;0.80;99.90;;;;;;5043642;28;20734;-77
2023/04/03 04:59:23;;;;;;;10.33;5.50;;;0.70;99.90;;;;;;5041863;28;20207;-76
2023/04/03 05:01:50;;;;;;;10.30;5.10;;;0.70;99.90;;;;;;5023806;28;20231;-77
2023/04/03 05:04:17;;;;;;;8.47;4.73;;;0.80;99.90;;;;;;5041088;28;20236;-78
2023/04/03 05:06:44;;;;;;;12.60;5.50;;;0.70;99.90;;;;;;5042089;28;20268;-80
2023/04/03 05:09:11;;;;;;;8.97;4.67;;;0.70;99.90;;;;;;5042146;28;20256;-78
2023/04/03 05:11:37;;;;;;;14.07;5.30;;;0.70;99.90;;;;;;5043052;28;20274;-79
2023/04/03 05:14:06;;;;;;;13.13;5.60;;;0.70;99.90;;;;;;5023904;28;20599;-78
2023/04/03 05:16:33;;;;;;;16.53;8.40;;;0.70;99.90;;;;;;5039377;28;20205;-77
2023/04/03 05:19:00;;;;;;;11.80;5.73;;;0.80;99.90;;;;;;5027457;28;20244;-77
2023/04/03 05:21:31;;;;;;;13.30;5.83;;;0.80;99.90;;;;;;5027857;28;20205;-78
2023/04/03 05:24:02;;;;;;;11.93;6.10;;;0.80;99.90;;;;;;5026698;28;20761;-78
2023/04/03 05:26:31;;;;;;;14.30;5.70;;;0.80;99.90;;;;;;5024914;28;20236;-80
2023/04/03 05:28:57;;;;;;;12.30;5.77;;;0.80;99.90;;;;;;5024800;28;20226;-77
2023/04/03 05:31:24;;;;;;;13.37;6.60;;;0.80;99.90;;;;;;5010178;28;20333;-77
2023/04/03 05:33:51;;;;;;;9.33;6.60;;;0.80;99.90;;;;;;5024511;28;20232;-77
2023/04/03 05:36:18;;;;;;;10.73;6.30;;;0.80;99.90;;;;;;5025079;28;20226;-77
2023/04/03 05:38:46;;;;;;;10.67;6.10;;;0.80;99.90;;;;;;5024562;28;20213;-77
2023/04/03 05:41:14;;;;;;;9.20;5.33;;;0.80;99.90;;;;;;5020799;28;20217;-80
2023/04/03 05:43:41;;;;;;;12.87;6.57;;;0.80;99.90;;;;;;5020281;28;20253;-79
2023/04/03 05:46:20;;;;;;;13.13;6.30;;;0.80;99.90;;;;;;5020830;28;20252;-77
2023/04/03 05:48:47;;;;;;;11.67;5.87;;;0.90;99.90;;;;;;5018988;28;20292;-78
2023/04/03 05:51:17;;;;;;;9.80;5.57;;;0.80;99.90;;;;;;5022543;28;20256;-80
2023/04/03 05:53:46;;;;;;;12.67;6.00;;;0.90;99.90;;;;;;5021665;28;20206;-79
2023/04/03 05:56:13;;;;;;;12.83;5.93;;;0.90;99.90;;;;;;5019610;28;20208;-81
2023/04/03 05:58:40;;;;;;;10.97;5.90;;;0.90;99.90;;;;;;5023323;28;20237;-81
2023/04/03 06:01:07;;;;;;;10.03;5.43;;;0.90;99.90;;;;;;5023211;28;20278;-78
2023/04/03 06:03:34;;;;;;;8.23;5.47;;;1.00;99.90;;;;;;5018251;28;20326;-79
2023/04/03 06:06:04;;;;;;;11.00;5.90;;;1.00;99.90;;;;;;5024230;28;20210;-79
2023/04/03 06:08:31;;;;;;;10.17;5.30;;;1.00;99.90;;;;;;5024769;28;20240;-80
2023/04/03 06:10:58;;;;;;;11.27;5.83;;;1.00;99.90;;;;;;5027572;28;20224;-79
2023/04/03 06:13:25;;;;;;;8.47;5.87;;;1.20;99.90;;;;;;5025271;28;20214;-78
2023/04/03 06:15:52;;;;;;;7.77;5.47;;;1.10;99.90;;;;;;5024776;28;20206;-79
2023/04/03 06:18:19;;;;;;;11.90;5.40;;;1.10;99.90;;;;;;5029597;28;20238;-80
2023/04/03 06:20:46;;;;;;;13.37;5.20;;;1.10;99.90;;;;;;5027197;28;20536;-79
2023/04/03 06:23:14;;;;;;;13.90;5.20;;;1.20;99.90;;;;;;5022563;28;20639;-78
2023/04/03 06:25:41;;;;;;;9.03;5.07;;;1.20;99.90;;;;;;5025048;28;20209;-81
2023/04/03 06:28:09;;;;;;;7.47;5.03;;;1.20;99.90;;;;;;5026251;28;20736;-79
2023/04/03 06:30:37;;;;;;;8.13;4.40;;;1.30;99.90;;;;;;5026022;28;20310;-81
2023/04/03 06:33:04;;;;;;;7.20;4.60;;;1.30;99.90;;;;;;5030767;28;20225;-80
2023/04/03 06:35:31;;;;;;;5.73;4.47;;;1.30;99.90;;;;;;5023278;28;20217;-79
2023/04/03 06:37:58;;;;;;;8.17;4.90;;;1.40;99.90;;;;;;5025325;28;20339;-79
2023/04/03 06:40:26;;;;;;;9.60;4.37;;;1.40;99.90;;;;;;5022424;28;20237;-80
2023/04/03 06:42:53;;;;;;;9.80;4.00;;;1.50;99.90;;;;;;5024722;28;20301;-80
2023/04/03 06:45:21;;;;;;;11.07;4.70;;;1.50;99.90;;;;;;5023197;28;20719;-79
2023/04/03 06:47:48;;;;;;;8.77;4.00;;;1.90;99.90;;;;;;5028327;28;20218;-79
2023/04/03 06:50:15;;;;;;;10.30;4.20;;;1.60;99.90;;;;;;5021494;28;20238;-79
2023/04/03 06:52:42;;;;;;;8.43;4.07;;;1.70;99.90;;;;;;5024015;28;20289;-79
2023/04/03 06:55:09;;;;;;;14.40;4.37;;;1.70;99.90;;;;;;5024314;28;20230;-81
2023/04/03 06:57:36;;;;;;;10.73;5.37;;;1.90;99.90;;;;;;5024191;28;20294;-81
2023/04/03 07:00:05;;;;;;;9.53;4.27;;;2.30;99.90;;;;;;5020000;28;20218;-79
2023/04/03 07:02:32;;;;;;;7.87;3.60;;;3.40;99.90;;;;;;5021690;28;20276;-81
2023/04/03 07:04:59;;;;;;;7.97;3.30;;;4.00;99.90;;;;;;5027821;28;20714;-79
2023/04/03 07:07:26;;;;;;;5.67;2.70;;;5.90;99.90;;;;;;5024189;28;20660;-80
2023/04/03 07:09:53;;;;;;;8.53;2.80;;;7.00;99.90;;;;;;5022160;28;20232;-80
2023/04/03 07:12:20;;;;;;;3.33;2.10;;;7.90;99.90;;;;;;5026185;28;20203;-80
2023/04/03 07:14:47;;;;;;;4.07;2.27;;;8.60;99.90;;;;;;5022857;28;20297;-80
2023/04/03 07:17:14;;;;;;;9.23;3.10;;;8.90;99.90;;;;;;5023753;28;20213;-80
2023/04/03 07:19:41;;;;;;;5.87;2.00;;;9.50;99.90;;;;;;5044560;28;20193;-80
2023/04/03 07:22:08;;;;;;;6.13;2.20;;;10.10;99.90;;;;;;5030166;28;20635;-80
2023/04/03 07:24:34;;;;;;;5.53;2.10;;;10.80;99.90;;;;;;5044447;28;20216;-80
2023/04/03 07:27:02;;;;;;;5.37;2.23;;;11.40;99.90;;;;;;5034479;28;20205;-80
2023/04/03 07:29:29;;;;;;;6.03;2.17;;;11.90;99.90;;;;;;5026887;28;20304;-80
2023/04/03 07:31:57;;;;;;;4.30;1.87;;;12.30;99.90;;;;;;5043700;28;20209;-79
2023/04/03 07:34:26;;;;;;;4.60;1.98;;;12.20;99.90;;;;;;5044069;28;20633;-79
2023/04/03 07:36:53;;;;;;;3.20;2.15;;;12.20;99.90;;;;;;5041575;28;20288;-80
2023/04/03 07:39:20;;;;;;;4.10;1.92;;;12.20;99.90;;;;;;5043620;28;20272;-79
2023/04/03 07:41:47;;;;;;;4.30;1.85;;;12.20;99.90;;;;;;5040441;28;20209;-80
2023/04/03 07:44:14;;;;;;;6.15;1.77;;;11.90;99.90;;;;;;5041842;28;20311;-80
2023/04/03 07:46:42;;;;;;;3.20;1.70;;;11.90;99.90;;;;;;5042838;28;20292;-79
2023/04/03 07:49:09;;;;;;;3.90;1.87;;;11.80;99.90;;;;;;5043649;28;20237;-81
2023/04/03 07:51:36;;;;;;;3.38;1.70;;;12.00;99.90;;;;;;5048126;28;20259;-79
2023/04/03 07:54:03;;;;;;;5.53;2.03;;;11.90;99.90;;;;;;5024167;28;20212;-79
2023/04/03 07:56:31;;;;;;;7.20;2.15;;;12.20;99.90;;;;;;5042413;28;20209;-79
2023/04/03 07:58:58;;;;;;;3.58;1.77;;;12.60;99.90;;;;;;5040248;28;20209;-79
2023/04/03 08:01:25;;;;;;;4.70;2.35;;;13.00;99.90;;;;;;5046962;28;20247;-80
2023/04/03 08:03:52;;;;;;;3.25;1.95;;;13.10;99.90;;;;;;5042065;28;20267;-79
2023/04/03 08:06:18;;;;;;;2.80;1.30;;;12.90;99.90;;;;;;5036557;28;20197;-81
2023/04/03 08:09:04;;;;;;;3.13;1.67;;;12.40;99.90;;;;;;5041624;28;20355;-78
2023/04/03 08:11:31;;;;;;;4.03;1.65;;;11.50;99.90;;;;;;5045215;28;20305;-79
2023/04/03 08:13:58;;;;;;;3.77;1.70;;;11.40;99.90;;;;;;5045550;28;20265;-80
2023/04/03 08:16:27;;;;;;;3.13;1.30;;;11.50;99.90;;;;;;5040662;28;20244;-79
2023/04/03 08:18:55;;;;;;;5.07;1.70;;;11.50;99.90;;;;;;5040370;28;20234;-80
2023/04/03 08:21:22;;;;;;;3.47;1.50;;;11.70;99.90;;;;;;5043697;28;20671;-79
2023/04/03 08:23:50;;;;;;;2.50;1.20;;;11.90;99.90;;;;;;5047374;28;20197;-79
2023/04/03 08:26:20;;;;;;;2.83;1.40;;;11.50;99.40;;;;;;5044450;28;20204;-78
2023/04/03 08:28:48;;;;;;;3.33;1.33;;;11.20;99.90;;;;;;5041260;28;20260;-81
2023/04/03 08:31:19;;;;;;;3.23;1.50;;;11.40;99.90;;;;;;5039832;28;20658;-79
2023/04/03 08:33:47;;;;;;;3.43;1.63;;;11.40;99.90;;;;;;5041604;28;20224;-79
2023/04/03 08:36:25;;;;;;;3.57;1.17;;;11.30;99.90;;;;;;5045358;28;20201;-80
2023/04/03 08:38:53;;;;;;;2.37;1.23;;;11.10;99.90;;;;;;5040715;28;20202;-79
2023/04/03 08:41:30;;;;;;;1.93;1.10;;;10.80;98.70;;;;;;5040525;28;20213;-79
2023/04/03 08:44:16;;;;;;;2.33;1.20;;;10.40;98.40;;;;;;5022662;28;20247;-79
2023/04/03 08:47:04;;;;;;;3.03;1.73;;;10.30;99.70;;;;;;5040529;28;20243;-79
2023/04/03 08:49:53;;;;;;;3.17;1.40;;;10.50;99.80;;;;;;5039602;28;20332;-79
2023/04/03 08:52:35;;;;;;;2.87;1.33;;;10.90;97.40;;;;;;5042408;28;20213;-80
2023/04/03 08:55:34;;;;;;;3.87;1.20;;;11.00;97.00;;;;;;5039678;28;20252;-79
2023/04/03 08:58:16;;;;;;;2.63;1.07;;;11.30;96.50;;;;;;5040650;28;20232;-80
2023/04/03 09:01:24;;;;;;;2.17;1.10;;;11.10;96.60;;;;;;5042981;28;20247;-76
2023/04/03 09:03:52;;;;;;;2.77;1.07;;;11.00;96.10;;;;;;5043340;28;20716;-79
2023/04/03 09:06:21;;;;;;;2.53;1.10;;;10.90;96.60;;;;;;5050485;28;20216;-79
2023/04/03 09:08:58;;;;;;;4.97;1.77;;;10.90;96.50;;;;;;5041704;28;20270;-79
2023/04/03 09:11:48;;;;;;;3.43;1.20;;;10.90;95.20;;;;;;5041614;28;20605;-77
2023/04/03 09:14:37;;;;;;;3.70;1.03;;;10.90;94.60;;;;;;5001685;28;20650;-80
2023/04/03 09:17:29;;;;;;;1.03;0.93;;;10.70;93.00;;;;;;5038768;28;20334;-80
2023/04/03 09:20:18;;;;;;;2.70;1.20;;;10.60;95.70;;;;;;5020376;28;20255;-78
2023/04/03 09:22:48;;;;;;;3.67;0.97;;;10.60;94.70;;;;;;5018693;28;20357;-78
2023/04/03 09:25:29;;;;;;;7.10;1.60;;;10.70;94.00;;;;;;5020082;28;20639;-78
2023/04/03 09:27:59;;;;;;;1.77;0.87;;;11.00;93.20;;;;;;5019894;28;20378;-79
2023/04/03 09:30:27;;;;;;;1.50;0.90;;;11.00;92.80;;;;;;5022707;28;20302;-79
2023/04/03 09:32:56;;;;;;;1.77;0.90;;;11.10;90.70;;;;;;5022117;28;20297;-78
2023/04/03 09:35:37;;;;;;;4.43;1.33;;;11.30;90.60;;;;;;5026249;28;20293;-80
2023/04/03 09:38:18;;;;;;;1.50;1.00;;;11.20;87.60;;;;;;5019515;28;20667;-80
2023/04/03 09:40:47;;;;;;;2.20;1.00;;;10.70;88.60;;;;;;5018903;28;20245;-79
2023/04/03 09:43:17;;;;;;;1.93;1.00;;;10.70;89.30;;;;;;5004172;28;20276;-79
2023/04/03 09:45:45;;;;;;;0.80;0.80;;;10.50;86.90;;;;;;5019973;28;20260;-78
2023/04/03 09:48:12;;;;;;;1.33;1.00;;;10.30;86.80;;;;;;5022560;28;20274;-80
2023/04/03 09:50:55;;;;;;;2.63;1.03;;;10.30;88.80;;;;;;5002239;28;20222;-79
2023/04/03 09:53:35;;;;;;;2.13;1.00;;;10.50;88.60;;;;;;5019188;28;20206;-79
2023/04/03 09:56:17;;;;;;;1.93;0.90;;;10.50;89.50;;;;;;5019616;28;20550;-81
2023/04/03 09:58:48;;;;;;;2.27;1.20;;;10.50;87.30;;;;;;5018955;28;20327;-79
2023/04/03 10:01:32;;;;;;;2.23;0.90;;;10.40;88.20;;;;;;5019205;28;20285;-81
2023/04/03 10:04:04;;;;;;;0.80;0.80;;;10.40;87.40;;;;;;5023174;28;20213;-80
2023/04/03 10:06:40;;;;;;;1.73;1.10;;;10.60;87.30;;;;;;5006355;28;20286;-82
2023/04/03 10:09:26;;;;;;;3.23;1.17;;;10.60;85.60;;;;;;5019537;28;20658;-80
2023/04/03 10:12:00;;;;;;;2.23;1.10;;;10.60;84.90;;;;;;5019321;28;20599;-79
2023/04/03 10:14:29;;;;;;;5.97;1.07;;;10.50;87.70;;;;;;5022020;28;20198;-79
2023/04/03 10:17:09;;;;;;;1.73;0.90;;;10.40;88.20;;;;;;5021397;28;20328;-79
2023/04/03 10:19:44;;;;;;;2.67;1.00;;;10.20;88.60;;;;;;5003292;28;20941;-78
2023/04/03 10:22:39;;;;;;;5.10;1.10;;;9.80;89.80;;;;;;5017452;28;20229;-80
2023/04/03 10:25:20;;;;;;;1.87;1.30;;;9.70;89.20;;;;;;5017813;28;20674;-79
2023/04/03 10:28:05;;;;;;;1.97;1.00;;;9.70;88.30;;;;;;5019484;28;20264;-79
2023/04/03 10:30:50;;;;;;;1.83;0.90;;;9.80;89.10;;;;;;5020691;28;20230;-79
2023/04/03 10:33:22;;;;;;;2.33;0.87;;;9.80;89.70;;;;;;5020403;28;20585;-79
2023/04/03 10:36:22;;;;;;;1.63;0.87;;;9.70;86.90;;;;;;5020350;28;20312;-78
2023/04/03 10:39:10;;;;;;;4.53;0.90;;;9.80;87.20;;;;;;5021241;28;20304;-79
2023/04/03 10:41:51;;;;;;;2.97;0.93;;;9.70;87.40;;;;;;5006046;28;20209;-81
2023/04/03 10:44:58;;;;;;;4.13;0.90;;;9.60;89.00;;;;;;5021457;28;20297;-80
2023/04/03 10:47:48;;;;;;;2.80;1.20;;;9.70;89.70;;;;;;5021940;28;20217;-80
2023/04/03 10:50:27;;;;;;;3.10;1.17;;;9.80;89.70;;;;;;5001578;28;20755;-80
2023/04/03 10:52:57;;;;;;;1.63;1.00;;;9.80;88.80;;;;;;5002188;28;20297;-81
2023/04/03 10:55:43;;;;;;;3.50;1.20;;;9.90;89.50;;;;;;5023934;28;20205;-79
2023/04/03 10:58:21;;;;;;;2.47;1.27;;;10.00;90.00;;;;;;5004873;28;20311;-77
2023/04/03 11:00:52;;;;;;;3.60;1.10;;;10.10;91.50;;;;;;5024688;28;20267;-79
2023/04/03 11:03:40;;;;;;;3.00;1.47;;;10.20;92.30;;;;;;5023995;28;20254;-79
2023/04/03 11:06:10;;;;;;;2.20;1.10;;;10.00;90.80;;;;;;5028979;28;20205;-78
2023/04/03 11:08:56;;;;;;;2.37;1.20;;;10.00;92.20;;;;;;5021957;28;20620;-78
2023/04/03 11:11:35;;;;;;;2.87;1.30;;;9.80;92.40;;;;;;5023748;28;20242;-78
2023/04/03 11:14:24;;;;;;;1.17;1.00;;;9.90;92.50;;;;;;5024639;28;20197;-80
2023/04/03 11:17:17;;;;;;;4.93;1.17;;;10.10;92.20;;;;;;5023081;28;20213;-80
2023/04/03 11:20:03;;;;;;;1.17;1.03;;;10.30;90.60;;;;;;5005782;28;20208;-79
2023/04/03 11:22:38;;;;;;;4.17;1.13;;;10.30;90.00;;;;;;5008876;28;20268;-79
2023/04/03 11:25:11;;;;;;;3.63;1.33;;;10.30;89.30;;;;;;5021969;28;20259;-79
2023/04/03 11:27:47;;;;;;;2.80;1.20;;;10.40;90.10;;;;;;5023591;28;20268;-79
2023/04/03 11:30:23;;;;;;;2.13;1.10;;;10.50;90.00;;;;;;5024768;28;20226;-79
2023/04/03 11:33:31;;;;;;;3.00;1.20;;;10.50;90.10;;;;;;5023186;28;20241;-79
2023/04/03 11:36:12;;;;;;;4.17;2.23;;;10.60;91.70;;;;;;5021398;28;20633;-78
2023/04/03 11:38:56;;;;;;;2.33;1.23;;;10.60;90.90;;;;;;5022373;28;20229;-78
2023/04/03 11:41:30;;;;;;;2.03;1.00;;;10.40;91.00;;;;;;5021601;28;20671;-79
2023/04/03 11:44:30;;;;;;;11.67;1.70;;;10.40;90.80;;;;;;5024719;28;20202;-79
2023/04/03 11:46:59;;;;;;;6.47;1.20;;;10.50;89.60;;;;;;5026920;28;20198;-78
2023/04/03 11:50:01;;;;;;;1.90;0.90;;;10.60;90.80;;;;;;5020798;28;20654;-78
2023/04/03 11:52:40;;;;;;;4.67;1.10;;;10.60;91.60;;;;;;5022384;28;20283;-78
2023/04/03 11:55:20;;;;;;;2.70;1.10;;;10.50;91.50;;;;;;5021742;28;20662;-79
2023/04/03 11:57:46;;;;;;;3.07;1.30;;;10.50;91.10;;;;;;5024114;28;20201;-79
2023/04/03 12:00:51;;;;;;;2.90;1.10;;;10.50;91.90;;;;;;5023351;28;20236;-78
2023/04/03 12:03:26;;;;;;;2.40;1.10;;;10.70;91.20;;;;;;5022271;28;20232;-79
2023/04/03 12:06:16;;;;;;;2.03;1.50;;;10.70;90.70;;;;;;5027496;28;20205;-78
2023/04/03 12:08:50;;;;;;;2.53;1.37;;;10.60;89.30;;;;;;4996088;28;20572;-79
2023/04/03 12:11:23;;;;;;;2.00;1.10;;;10.40;91.30;;;;;;5020139;28;20625;-80
2023/04/03 12:13:57;;;;;;;3.77;1.50;;;10.50;91.80;;;;;;5023729;28;20252;-78
2023/04/03 12:16:27;;;;;;;2.97;1.20;;;10.70;91.90;;;;;;5023195;28;20206;-79
2023/04/03 12:19:13;;;;;;;2.67;1.10;;;10.90;91.90;;;;;;5033774;28;20329;-78
2023/04/03 12:21:46;;;;;;;4.60;1.40;;;11.00;92.10;;;;;;5025303;28;20204;-80
2023/04/03 12:24:16;;;;;;;6.53;2.03;;;11.20;90.60;;;;;;5021758;28;20544;-78
2023/04/03 12:27:04;;;;;;;2.33;1.40;;;11.20;90.40;;;;;;5042534;28;20201;-79
2023/04/03 12:29:35;;;;;;;3.43;1.40;;;11.30;89.90;;;;;;5044779;28;20202;-79
2023/04/03 12:32:22;;;;;;;3.30;1.53;;;11.30;89.70;;;;;;5023166;28;20229;-79
2023/04/03 12:35:27;;;;;;;1.90;1.30;;;11.10;89.10;;;;;;5039759;28;20217;-80
2023/04/03 12:38:33;;;;;;;2.00;1.40;;;11.10;91.40;;;;;;5042187;28;20213;-78
2023/04/03 12:41:39;;;;;;;4.67;1.50;;;11.30;91.40;;;;;;5040594;28;20229;-80
2023/04/03 12:44:12;;;;;;;3.33;1.17;;;11.40;91.60;;;;;;5042624;28;20205;-80
2023/04/03 12:47:00;;;;;;;5.67;1.50;;;11.40;90.50;;;;;;5040674;28;20213;-78
2023/04/03 12:49:42;;;;;;;2.70;1.30;;;11.60;90.50;;;;;;5039322;28;20227;-80
2023/04/03 12:52:41;;;;;;;3.47;1.47;;;11.50;92.70;;;;;;5039651;28;20309;-78
2023/04/03 12:55:18;;;;;;;2.23;1.40;;;11.50;92.20;;;;;;5041033;28;20246;-78
2023/04/03 12:57:45;;;;;;;2.07;1.40;;;11.50;93.00;;;;;;5046433;28;20201;-79
2023/04/03 13:00:33;;;;;;;3.93;1.50;;;11.40;91.80;;;;;;5040912;28;20213;-79
2023/04/03 13:03:03;;;;;;;3.10;1.43;;;11.20;91.30;;;;;;5040636;28;20226;-79
2023/04/03 13:05:32;;;;;;;2.97;1.33;;;11.10;92.20;;;;;;5044321;28;20297;-79
2023/04/03 13:08:12;;;;;;;3.63;1.40;;;11.50;93.10;;;;;;5030469;28;20586;-81
2023/04/03 13:10:57;;;;;;;5.43;1.67;;;11.70;92.30;;;;;;5034988;28;20307;-84
2023/04/03 13:13:26;;;;;;;3.03;1.70;;;11.80;90.40;;;;;;5041920;28;20723;-81
2023/04/03 13:15:54;;;;;;;5.23;1.30;;;11.80;90.00;;;;;;5041962;28;20209;-77
2023/04/03 13:18:36;;;;;;;3.33;1.53;;;11.70;92.40;;;;;;5039455;28;20315;-77